createdAt,value
2022-08-22T00:01:32.179Z,70.77
2022-08-22T00:02:46.509Z,100.00
2022-08-22T00:02:59.625Z,100.00
2022-08-22T00:03:07.585Z,100.00
2022-08-22T00:03:11.562Z,74.03
2022-08-22T00:04:26.239Z,69.78
2022-08-22T00:07:04.473Z,72.04
2022-08-22T00:10:02.451Z,73.19
2022-08-22T00:12:46.877Z,71.20
2022-08-22T00:15:42.848Z,71.70
2022-08-22T00:18:32.583Z,67.88
2022-08-22T00:21:20.879Z,66.88
2022-08-22T00:24:18.114Z,63.33
2022-08-22T00:26:55.720Z,66.24
2022-08-22T00:29:47.214Z,70.94
2022-08-22T00:32:30.491Z,69.98
2022-08-22T00:35:33.606Z,68.24
2022-08-22T00:38:15.424Z,72.01
2022-08-22T00:41:08.415Z,66.98
2022-08-22T00:44:04.638Z,68.59
2022-08-22T00:47:10.731Z,64.70
2022-08-22T00:50:00.627Z,63.89
2022-08-22T00:52:49.510Z,66.57
2022-08-22T00:55:56.104Z,66.09
2022-08-22T00:58:36.097Z,65.44
2022-08-22T01:01:09.110Z,66.33
2022-08-22T01:03:49.187Z,65.97
2022-08-22T01:06:36.493Z,62.50
2022-08-22T01:09:35.138Z,64.79
2022-08-22T01:12:19.855Z,67.12
2022-08-22T01:14:58.336Z,66.95
2022-08-22T01:17:46.203Z,70.99
2022-08-22T01:20:33.573Z,71.34
2022-08-22T01:23:40.446Z,66.45
2022-08-22T01:26:57.456Z,62.92
2022-08-22T01:29:47.777Z,61.30
2022-08-22T01:32:37.412Z,61.90
2022-08-22T01:35:36.127Z,56.91
2022-08-22T01:38:26.838Z,55.70
2022-08-22T01:41:15.485Z,55.80
2022-08-22T01:44:02.572Z,56.65
2022-08-22T01:46:48.542Z,56.71
2022-08-22T01:49:32.763Z,54.84
2022-08-22T01:52:31.067Z,56.65
2022-08-22T01:55:10.777Z,56.27
2022-08-22T01:57:59.417Z,65.10
2022-08-22T02:00:55.860Z,65.30
2022-08-22T02:03:32.638Z,63.05
2022-08-22T02:06:13.325Z,59.85
2022-08-22T02:08:53.315Z,61.29
2022-08-22T02:11:45.644Z,58.20
2022-08-22T02:14:33.724Z,62.65
2022-08-22T02:17:24.618Z,85.30
2022-08-22T02:20:25.053Z,100.00
2022-08-22T02:22:56.108Z,99.40
2022-08-22T02:25:31.489Z,90.21
2022-08-22T02:28:38.933Z,91.85
2022-08-22T02:31:26.777Z,87.57
2022-08-22T02:34:02.106Z,89.26
2022-08-22T02:36:34.918Z,87.17
2022-08-22T02:39:17.911Z,86.92
2022-08-22T02:41:55.879Z,88.84
2022-08-22T02:44:34.486Z,88.74
2022-08-22T02:47:22.218Z,88.74
2022-08-22T02:50:00.162Z,89.27
2022-08-22T02:52:36.125Z,90.72
2022-08-22T02:55:12.868Z,91.94
2022-08-22T02:57:53.458Z,98.37
2022-08-22T03:00:33.384Z,100.00
2022-08-22T03:03:29.560Z,97.48
2022-08-22T03:06:06.332Z,100.00
2022-08-22T03:08:42.863Z,100.00
2022-08-22T03:11:27.655Z,100.00
2022-08-22T03:14:20.088Z,100.00
2022-08-22T03:17:39.974Z,100.00
2022-08-22T03:20:22.617Z,100.00
2022-08-22T03:22:58.979Z,100.00
2022-08-22T03:25:50.922Z,100.00
2022-08-22T03:28:38.141Z,100.00
2022-08-22T03:31:23.623Z,100.00
2022-08-22T03:34:21.189Z,100.00
2022-08-22T03:37:03.941Z,100.00
2022-08-22T03:39:43.950Z,100.00
2022-08-22T03:42:39.217Z,100.00
2022-08-22T03:46:02.219Z,100.00
2022-08-22T03:48:50.177Z,100.00
2022-08-22T03:51:32.334Z,100.00
2022-08-22T03:54:18.280Z,100.00
2022-08-22T03:57:08.588Z,100.00
2022-08-22T03:59:56.275Z,100.00
2022-08-22T04:02:59.649Z,98.64
2022-08-22T04:05:41.438Z,100.00
2022-08-22T04:08:37.301Z,100.00
2022-08-22T04:11:40.144Z,100.00
2022-08-22T04:14:54.666Z,100.00
2022-08-22T04:17:38.146Z,100.00
2022-08-22T04:20:44.175Z,100.00
2022-08-22T04:23:28.592Z,100.00
2022-08-22T04:26:10.772Z,100.00
2022-08-22T04:29:00.177Z,100.00
2022-08-22T04:31:37.744Z,100.00
2022-08-22T04:34:23.653Z,100.00
2022-08-22T04:37:11.113Z,100.00
2022-08-22T04:39:56.909Z,100.00
2022-08-22T04:42:43.006Z,100.00
2022-08-22T04:45:24.297Z,100.00
2022-08-22T04:47:57.939Z,100.00
2022-08-22T04:50:43.180Z,100.00
2022-08-22T04:53:41.222Z,100.00
2022-08-22T04:56:12.963Z,100.00
2022-08-22T04:59:17.666Z,100.00
2022-08-22T05:02:09.658Z,100.00
2022-08-22T05:04:50.385Z,100.00
2022-08-22T05:07:29.275Z,100.00
2022-08-22T05:10:35.137Z,100.00
2022-08-22T05:13:33.473Z,100.00
2022-08-22T05:16:07.117Z,100.00
2022-08-22T05:18:52.357Z,100.00
2022-08-22T05:21:27.137Z,100.00
2022-08-22T05:24:02.344Z,100.00
2022-08-22T05:26:39.012Z,100.00
2022-08-22T05:29:11.787Z,100.00
2022-08-22T05:31:50.891Z,100.00
2022-08-22T05:34:29.525Z,100.00
2022-08-22T05:37:08.213Z,100.00
2022-08-22T05:39:41.202Z,100.00
2022-08-22T05:42:16.806Z,100.00
2022-08-22T05:44:46.163Z,100.00
2022-08-22T05:47:40.960Z,100.00
2022-08-22T05:50:24.988Z,100.00
2022-08-22T05:53:19.033Z,100.00
2022-08-22T05:55:50.841Z,100.00
2022-08-22T05:58:42.251Z,100.00
2022-08-22T06:01:29.795Z,100.00
2022-08-22T06:04:10.825Z,100.00
2022-08-22T06:07:11.264Z,100.00
2022-08-22T06:09:50.001Z,100.00
2022-08-22T06:12:44.569Z,100.00
2022-08-22T06:15:28.944Z,100.00
2022-08-22T06:18:08.583Z,100.00
2022-08-22T06:20:57.948Z,100.00
2022-08-22T06:24:09.705Z,100.00
2022-08-22T06:26:48.567Z,100.00
2022-08-22T06:29:30.964Z,100.00
2022-08-22T06:32:08.131Z,100.00
2022-08-22T06:34:42.519Z,100.00
2022-08-22T06:37:29.222Z,100.00
2022-08-22T06:40:01.916Z,100.00
2022-08-22T06:42:34.368Z,100.00
2022-08-22T06:45:23.605Z,100.00
2022-08-22T06:48:00.554Z,100.00
2022-08-22T06:50:59.440Z,100.00
2022-08-22T06:53:40.316Z,100.00
2022-08-22T06:56:24.696Z,100.00
2022-08-22T06:58:57.728Z,100.00
2022-08-22T07:01:32.364Z,100.00
2022-08-22T07:04:12.291Z,100.00
2022-08-22T07:06:45.151Z,100.00
2022-08-22T07:09:40.306Z,100.00
2022-08-22T07:12:19.175Z,100.00
2022-08-22T07:14:54.838Z,100.00
2022-08-22T07:17:30.860Z,100.00
2022-08-22T07:20:25.483Z,100.00
2022-08-22T07:23:05.086Z,100.00
2022-08-22T07:25:46.487Z,100.00
2022-08-22T07:28:51.449Z,100.00
2022-08-22T07:31:52.383Z,100.00
2022-08-22T07:34:29.513Z,100.00
2022-08-22T07:37:14.254Z,100.00
2022-08-22T07:40:44.835Z,100.00
2022-08-22T07:43:42.758Z,100.00
2022-08-22T07:46:42.468Z,100.00
2022-08-22T07:49:30.288Z,100.00
2022-08-22T07:52:08.978Z,100.00
2022-08-22T07:54:47.997Z,100.00
2022-08-22T07:57:40.613Z,100.00
2022-08-22T08:00:19.820Z,100.00
2022-08-22T08:03:02.362Z,100.00
2022-08-22T08:05:36.770Z,100.00
2022-08-22T08:08:46.530Z,100.00
2022-08-22T08:11:18.001Z,100.00
2022-08-22T08:13:51.022Z,100.00
2022-08-22T08:16:26.457Z,100.00
2022-08-22T08:18:59.549Z,100.00
2022-08-22T08:21:54.410Z,100.00
2022-08-22T08:24:44.528Z,100.00
2022-08-22T08:27:42.232Z,100.00
2022-08-22T08:30:17.232Z,100.00
2022-08-22T08:33:24.345Z,100.00
2022-08-22T08:36:12.504Z,100.00
2022-08-22T08:39:13.200Z,100.00
2022-08-22T08:41:58.242Z,100.00
2022-08-22T08:44:42.548Z,100.00
2022-08-22T08:47:26.171Z,100.00
2022-08-22T08:50:21.495Z,100.00
2022-08-22T08:53:19.799Z,100.00
2022-08-22T08:56:00.192Z,100.00
2022-08-22T08:58:44.238Z,100.00
2022-08-22T09:01:19.505Z,100.00
2022-08-22T09:04:01.205Z,100.00
2022-08-22T09:06:52.776Z,100.00
2022-08-22T09:10:00.989Z,100.00
2022-08-22T09:12:57.110Z,100.00
2022-08-22T09:16:10.398Z,100.00
2022-08-22T09:18:48.193Z,100.00
2022-08-22T09:21:36.301Z,100.00
2022-08-22T09:24:25.168Z,100.00
2022-08-22T09:27:33.625Z,100.00
2022-08-22T09:30:12.612Z,100.00
2022-08-22T09:33:14.595Z,100.00
2022-08-22T09:36:05.190Z,100.00
2022-08-22T09:38:40.563Z,100.00
2022-08-22T09:41:28.812Z,100.00
2022-08-22T09:44:54.831Z,100.00
2022-08-22T09:47:42.389Z,100.00
2022-08-22T09:50:17.041Z,100.00
2022-08-22T09:52:50.131Z,100.00
2022-08-22T09:55:36.515Z,100.00
2022-08-22T09:58:27.796Z,100.00
2022-08-22T10:00:59.374Z,100.00
2022-08-22T10:04:04.677Z,100.00
2022-08-22T10:06:47.329Z,100.00
2022-08-22T10:09:31.149Z,100.00
2022-08-22T10:12:16.285Z,100.00
2022-08-22T10:15:06.891Z,100.00
2022-08-22T10:17:41.408Z,100.00
2022-08-22T10:20:29.838Z,100.00
2022-08-22T10:23:34.215Z,100.00
2022-08-22T10:26:25.637Z,100.00
2022-08-22T10:29:15.612Z,100.00
2022-08-22T10:31:59.411Z,100.00
2022-08-22T10:34:38.248Z,100.00
2022-08-22T10:37:37.479Z,100.00
2022-08-22T10:40:24.705Z,100.00
2022-08-22T10:43:28.962Z,100.00
2022-08-22T10:46:15.587Z,100.00
2022-08-22T10:48:50.538Z,100.00
2022-08-22T10:51:23.889Z,100.00
2022-08-22T10:54:05.521Z,100.00
2022-08-22T10:57:07.098Z,100.00
2022-08-22T10:59:59.819Z,100.00
2022-08-22T11:02:31.615Z,100.00
2022-08-22T11:05:37.711Z,100.00
2022-08-22T11:08:51.051Z,100.00
2022-08-22T11:11:32.933Z,100.00
2022-08-22T11:14:23.420Z,100.00
2022-08-22T11:16:55.405Z,100.00
2022-08-22T11:19:55.487Z,100.00
2022-08-22T11:23:04.880Z,100.00
2022-08-22T11:25:52.379Z,100.00
2022-08-22T11:28:28.862Z,100.00
2022-08-22T11:31:36.631Z,100.00
2022-08-22T11:34:44.794Z,100.00
2022-08-22T11:37:24.106Z,100.00
2022-08-22T11:40:20.373Z,100.00
2022-08-22T11:43:26.638Z,100.00
2022-08-22T11:46:04.094Z,100.00
2022-08-22T11:48:56.790Z,100.00
2022-08-22T11:51:46.901Z,100.00
2022-08-22T11:54:45.416Z,100.00
2022-08-22T11:57:26.102Z,100.00
2022-08-22T12:00:13.904Z,100.00
2022-08-22T12:02:59.491Z,100.00
2022-08-22T12:05:52.499Z,100.00
2022-08-22T12:08:51.769Z,100.00
2022-08-22T12:11:31.138Z,100.00
2022-08-22T12:14:12.167Z,100.00
2022-08-22T12:17:06.719Z,100.00
2022-08-22T12:20:15.006Z,100.00
2022-08-22T12:22:51.245Z,100.00
2022-08-22T12:25:44.420Z,100.00
2022-08-22T12:28:20.449Z,100.00
2022-08-22T12:30:59.780Z,100.00
2022-08-22T12:33:41.342Z,100.00
2022-08-22T12:36:28.653Z,100.00
2022-08-22T12:39:12.950Z,100.00
2022-08-22T12:42:25.331Z,100.00
2022-08-22T12:45:34.441Z,100.00
2022-08-22T12:48:21.932Z,100.00
2022-08-22T12:51:01.931Z,100.00
2022-08-22T12:54:06.351Z,100.00
2022-08-22T12:57:24.368Z,100.00
2022-08-22T13:00:11.641Z,100.00
2022-08-22T13:02:42.557Z,100.00
2022-08-22T13:05:19.951Z,100.00
2022-08-22T13:08:04.702Z,100.00
2022-08-22T13:11:00.151Z,100.00
2022-08-22T13:13:38.974Z,100.00
2022-08-22T13:16:12.268Z,100.00
2022-08-22T13:18:53.524Z,100.00
2022-08-22T13:21:36.227Z,100.00
2022-08-22T13:24:22.682Z,100.00
2022-08-22T13:27:12.799Z,100.00
2022-08-22T13:29:54.985Z,100.00
2022-08-22T13:32:51.681Z,100.00
2022-08-22T13:35:24.863Z,100.00
2022-08-22T13:38:04.457Z,100.00
2022-08-22T13:40:35.174Z,100.00
2022-08-22T13:43:08.953Z,100.00
2022-08-22T13:45:39.727Z,100.00
2022-08-22T13:48:15.113Z,100.00
2022-08-22T13:51:12.850Z,100.00
2022-08-22T13:54:11.213Z,100.00
2022-08-22T13:56:56.898Z,100.00
2022-08-22T13:59:52.656Z,100.00
2022-08-22T14:02:23.516Z,100.00
2022-08-22T14:05:09.382Z,100.00
2022-08-22T14:08:13.025Z,100.00
2022-08-22T14:11:11.335Z,100.00
2022-08-22T14:13:54.771Z,100.00
2022-08-22T14:16:35.099Z,100.00
2022-08-22T14:19:09.800Z,100.00
2022-08-22T14:21:44.992Z,100.00
2022-08-22T14:24:34.105Z,100.00
2022-08-22T14:27:27.856Z,100.00
2022-08-22T14:30:05.434Z,100.00
2022-08-22T14:32:57.172Z,100.00
2022-08-22T14:35:38.618Z,100.00
2022-08-22T14:38:32.512Z,100.00
2022-08-22T14:41:52.867Z,100.00
2022-08-22T14:44:24.836Z,100.00
2022-08-22T14:46:58.778Z,100.00
2022-08-22T14:49:55.258Z,100.00
2022-08-22T14:52:40.644Z,100.00
2022-08-22T14:55:24.055Z,100.00
2022-08-22T14:58:08.977Z,100.00
2022-08-22T15:00:41.969Z,100.00
2022-08-22T15:03:17.717Z,100.00
2022-08-22T15:05:52.897Z,100.00
2022-08-22T15:08:42.183Z,100.00
2022-08-22T15:11:23.109Z,100.00
2022-08-22T15:14:03.252Z,100.00
2022-08-22T15:16:40.464Z,100.00
2022-08-22T15:19:35.769Z,100.00
2022-08-22T15:22:14.166Z,100.00
2022-08-22T15:24:51.750Z,100.00
2022-08-22T15:27:28.409Z,100.00
2022-08-22T15:30:01.991Z,100.00
2022-08-22T15:32:36.582Z,100.00
2022-08-22T15:35:32.249Z,100.00
2022-08-22T15:38:28.607Z,100.00
2022-08-22T15:41:18.617Z,100.00
2022-08-22T15:43:54.780Z,100.00
2022-08-22T15:46:34.260Z,100.00
2022-08-22T15:49:07.301Z,100.00
2022-08-22T15:52:01.808Z,100.00
2022-08-22T15:54:57.037Z,100.00
2022-08-22T15:57:39.804Z,100.00
2022-08-22T16:00:31.925Z,100.00
2022-08-22T16:03:19.549Z,100.00
2022-08-22T16:05:55.680Z,100.00
2022-08-22T16:08:33.109Z,100.00
2022-08-22T16:11:05.440Z,100.00
2022-08-22T16:13:39.483Z,100.00
2022-08-22T16:16:34.619Z,100.00
2022-08-22T16:19:03.888Z,100.00
2022-08-22T16:21:32.878Z,100.00
2022-08-22T16:24:01.889Z,100.00
2022-08-22T16:26:30.985Z,100.00
2022-08-22T16:29:28.431Z,100.00
2022-08-22T16:32:02.848Z,100.00
2022-08-22T16:34:37.734Z,100.00
2022-08-22T16:37:09.831Z,100.00
2022-08-22T16:39:45.333Z,100.00
2022-08-22T16:42:15.030Z,100.00
2022-08-22T16:44:57.081Z,100.00
2022-08-22T16:47:35.025Z,100.00
2022-08-22T16:50:24.574Z,100.00
2022-08-22T16:52:58.505Z,100.00
2022-08-22T16:55:30.746Z,100.00
2022-08-22T16:58:57.016Z,100.00
2022-08-22T17:01:38.935Z,100.00
2022-08-22T17:04:28.480Z,100.00
2022-08-22T17:07:31.828Z,100.00
2022-08-22T17:10:24.056Z,100.00
2022-08-22T17:13:11.605Z,100.00
2022-08-22T17:15:58.818Z,100.00
2022-08-22T17:19:15.577Z,100.00
2022-08-22T17:21:56.415Z,100.00
2022-08-22T17:24:39.465Z,100.00
2022-08-22T17:27:32.891Z,100.00
2022-08-22T17:30:10.883Z,100.00
2022-08-22T17:33:27.991Z,100.00
2022-08-22T17:36:26.218Z,100.00
2022-08-22T17:39:25.478Z,100.00
2022-08-22T17:42:36.053Z,100.00
2022-08-22T17:45:32.200Z,100.00
2022-08-22T17:48:07.047Z,100.00
2022-08-22T17:50:45.789Z,100.00
2022-08-22T17:54:03.440Z,100.00
2022-08-22T17:56:43.061Z,100.00
2022-08-22T17:59:38.333Z,100.00
2022-08-22T18:04:49.669Z,100.00
2022-08-22T18:07:36.444Z,100.00
2022-08-22T18:10:05.604Z,100.00
2022-08-22T18:12:53.624Z,100.00
2022-08-22T18:15:28.284Z,100.00
2022-08-22T18:18:37.047Z,100.00
2022-08-22T18:21:26.922Z,100.00
2022-08-22T18:24:03.511Z,100.00
2022-08-22T18:26:43.682Z,100.00
2022-08-22T18:29:32.461Z,100.00
2022-08-22T18:32:16.535Z,100.00
2022-08-22T18:34:57.466Z,100.00
2022-08-22T18:37:35.348Z,100.00
2022-08-22T18:40:12.760Z,100.00
2022-08-22T18:42:50.692Z,100.00
2022-08-22T18:45:44.126Z,100.00
2022-08-22T18:48:54.352Z,100.00
2022-08-22T18:51:39.407Z,100.00
2022-08-22T18:54:08.512Z,100.00
2022-08-22T18:57:01.901Z,100.00
2022-08-22T19:00:00.497Z,100.00
2022-08-22T19:02:58.441Z,100.00
2022-08-22T19:05:30.349Z,100.00
2022-08-22T19:08:18.008Z,100.00
2022-08-22T19:11:03.897Z,100.00
2022-08-22T19:14:03.841Z,100.00
2022-08-22T19:16:46.695Z,100.00
2022-08-22T19:19:55.941Z,100.00
2022-08-22T19:22:33.346Z,100.00
2022-08-22T19:25:10.885Z,100.00
2022-08-22T19:28:06.100Z,100.00
2022-08-22T19:30:35.169Z,100.00
2022-08-22T19:33:20.020Z,100.00
2022-08-22T19:36:13.915Z,100.00
2022-08-22T19:38:58.750Z,100.00
2022-08-22T19:41:55.028Z,100.00
2022-08-22T19:44:24.198Z,100.00
2022-08-22T19:47:19.545Z,100.00
2022-08-22T19:49:51.791Z,100.00
2022-08-22T19:52:48.823Z,100.00
2022-08-22T19:55:17.834Z,100.00
2022-08-22T19:58:08.597Z,100.00
2022-08-22T20:00:55.817Z,100.00
2022-08-22T20:03:28.224Z,100.00
2022-08-22T20:06:42.886Z,100.00
2022-08-22T20:09:39.009Z,100.00
2022-08-22T20:12:15.746Z,100.00
2022-08-22T20:14:48.473Z,100.00
2022-08-22T20:17:26.619Z,100.00
2022-08-22T20:22:56.612Z,100.00
2022-08-22T20:25:49.434Z,100.00
2022-08-22T20:28:37.379Z,100.00
2022-08-22T20:31:13.149Z,100.00
2022-08-22T20:33:46.622Z,100.00
2022-08-22T20:36:28.334Z,100.00
2022-08-22T20:39:11.783Z,100.00
2022-08-22T20:41:44.830Z,100.00
2022-08-22T20:44:35.409Z,100.00
2022-08-22T20:47:12.147Z,100.00
2022-08-22T20:49:49.703Z,100.00
2022-08-22T20:52:30.012Z,100.00
2022-08-22T20:55:14.045Z,100.00
2022-08-22T20:58:04.914Z,99.33
2022-08-22T21:00:45.623Z,97.47
2022-08-22T21:03:48.420Z,87.93
2022-08-22T21:06:30.129Z,93.49
2022-08-22T21:09:31.468Z,88.80
2022-08-22T21:12:02.137Z,80.35
2022-08-22T21:14:42.763Z,79.35
2022-08-22T21:17:23.096Z,72.47
2022-08-22T21:19:52.833Z,80.49
2022-08-22T21:22:32.336Z,76.92
2022-08-22T21:25:02.291Z,71.81
2022-08-22T21:27:34.771Z,72.30
2022-08-22T21:30:09.475Z,76.06
2022-08-22T21:32:44.140Z,74.90
2022-08-22T21:35:33.179Z,77.70
2022-08-22T21:38:03.034Z,73.59
2022-08-22T21:40:39.113Z,69.64
2022-08-22T21:43:27.875Z,68.82
2022-08-22T21:45:57.119Z,71.25
2022-08-22T21:48:40.077Z,69.22
2022-08-22T21:51:29.301Z,68.62
2022-08-22T21:54:43.486Z,68.26
2022-08-22T21:57:12.875Z,63.58
2022-08-22T21:59:52.198Z,61.99
2022-08-22T22:02:34.203Z,62.86
2022-08-22T22:05:14.271Z,63.38
2022-08-22T22:07:47.439Z,61.72
2022-08-22T22:10:19.520Z,57.53
2022-08-22T22:12:54.418Z,61.58
2022-08-22T22:15:26.814Z,56.28
2022-08-22T22:17:56.983Z,58.25
2022-08-22T22:20:30.432Z,61.97
2022-08-22T22:23:00.016Z,61.60
2022-08-22T22:25:41.192Z,61.68
2022-08-22T22:28:18.336Z,57.59
2022-08-22T22:30:51.358Z,55.09
2022-08-22T22:33:29.640Z,59.65
2022-08-22T22:36:04.568Z,61.07
2022-08-22T22:38:33.674Z,60.63
2022-08-22T22:41:02.771Z,60.97
2022-08-22T22:43:32.140Z,57.24
2022-08-22T22:46:01.145Z,56.44
2022-08-22T22:48:30.307Z,60.84
2022-08-22T22:50:59.299Z,60.54
2022-08-22T22:53:33.727Z,65.86
2022-08-22T22:56:14.343Z,60.00
2022-08-22T22:58:45.209Z,60.46
2022-08-22T23:01:24.084Z,60.90
2022-08-22T23:03:59.316Z,55.43
2022-08-22T23:06:36.040Z,56.03
2022-08-22T23:09:05.194Z,56.17
2022-08-22T23:11:34.257Z,53.81
2022-08-22T23:14:03.860Z,56.48
2022-08-22T23:16:37.335Z,51.98
2022-08-22T23:19:11.885Z,51.63
2022-08-22T23:21:42.911Z,53.95
2022-08-22T23:24:12.902Z,48.72
2022-08-22T23:26:43.083Z,52.79
2022-08-22T23:29:13.287Z,55.35
2022-08-22T23:31:56.441Z,54.74
2022-08-22T23:34:28.362Z,50.93
2022-08-22T23:37:00.098Z,49.43
2022-08-22T23:39:31.638Z,48.77
2022-08-22T23:42:01.303Z,49.24
2022-08-22T23:44:33.148Z,49.89
2022-08-22T23:47:04.774Z,47.24
2022-08-22T23:49:35.504Z,48.52
2022-08-22T23:52:06.410Z,49.37
2022-08-22T23:54:35.860Z,46.03
2022-08-22T23:57:11.989Z,46.17
2022-08-22T23:59:48.038Z,46.95
